עמוד ראשי
METAR-TAF:

METAR-TAF

שדות תעופה :

Middleton Island, אלסקה, ארצות הברית

קו רוחב: 59-26N, קו אורך: 146-18W, גובה: 27מטר

תצפית מזג אוויר נוכחית

הדו"ח נערך לפני 19דקות, בשעה 17:51 UTC
רוח 7קשר מכיוון מזרח
טמפרטורת 9 צלסיוס
לחות 93%
לחץ 1017 hPa
ראות: 16.1קילומטר
עננים בינוניים בגובה 1800רגל
מעונן בגובה 7500רגל
גשם קל

METAR: PAMD 201751Z AUTO 09007KT 10SM -RA BKN018 OVC075 09/08 A3004 RMK AO2 RAB46 SLP160 P0000 60001 T00940078 10094 20078 58004

זמן: 10:10 (18:10 UTC)


TAF: חסר

תצפיות ותחזיות מזג אוויר לגבי יותר מ- 4,000 שדות תעופה ברחבי העולם. דוחות METAR ו- TAF.

התחנות הזמינות מסומנות בנקודות צהובות ואדומות על גבי המפה.

העבר את העכבר לנקודה הצבעונית על מנת לראות את שם התחנה.

לאחר מכן, לחץ כדי לראות את תוכן ואת תחזיות מזג האוויר.

כדי לשנות את המפה: לחץ על הכפתורים הירוקים עם הפלוס השחור כדי להתקרב; על הכפתור הירוק עם המקף כדי להתרחק; או בחיצים הירוקים למפות סמוכות.


METAR-TAF: